createdAt,value
2023-02-22T00:00:19.473Z,101234.19
2023-02-22T00:02:46.622Z,101237.06
2023-02-22T00:05:16.642Z,101232.00
2023-02-22T00:07:44.610Z,101232.00
2023-02-22T00:10:13.412Z,101228.34
2023-02-22T00:12:42.545Z,101231.22
2023-02-22T00:15:09.261Z,101224.00
2023-02-22T00:17:35.747Z,101224.00
2023-02-22T00:20:05.525Z,101225.34
2023-02-22T00:22:31.853Z,101225.34
2023-02-22T00:24:58.188Z,101227.50
2023-02-22T00:27:24.513Z,101226.75
2023-02-22T00:29:50.864Z,101231.75
2023-02-22T00:32:17.318Z,101226.00
2023-02-22T00:34:43.703Z,101227.38
2023-02-22T00:37:10.398Z,101210.13
2023-02-22T00:39:36.737Z,101222.28
2023-02-22T00:42:03.931Z,101222.28
2023-02-22T00:44:30.316Z,101218.66
2023-02-22T00:46:56.670Z,101216.44
2023-02-22T00:49:23.044Z,101222.19
2023-02-22T00:51:49.671Z,101217.16
2023-02-22T00:54:18.421Z,101221.44
2023-02-22T00:56:44.775Z,101215.69
2023-02-22T00:59:11.156Z,101222.06
2023-02-22T01:01:37.515Z,101217.69
2023-02-22T01:04:03.991Z,101222.06
2023-02-22T01:06:31.329Z,101224.94
2023-02-22T01:08:58.136Z,101217.69
2023-02-22T01:11:24.472Z,101220.56
2023-02-22T01:13:54.080Z,101218.34
2023-02-22T01:16:21.081Z,101208.97
2023-02-22T01:18:47.435Z,101213.22
2023-02-22T01:21:14.010Z,101211.75
2023-02-22T01:23:41.139Z,101217.50
2023-02-22T01:26:07.485Z,101214.63
2023-02-22T01:28:33.941Z,101200.13
2023-02-22T01:31:02.983Z,101208.75
2023-02-22T01:33:29.354Z,101203.00
2023-02-22T01:35:55.689Z,101207.25
2023-02-22T01:38:22.049Z,101208.00
2023-02-22T01:40:48.804Z,101212.25
2023-02-22T01:43:16.822Z,101210.88
2023-02-22T01:45:47.949Z,101212.25
2023-02-22T01:48:16.120Z,101212.88
2023-02-22T01:50:44.267Z,101209.28
2023-02-22T01:53:13.168Z,101200.66
2023-02-22T01:55:39.537Z,101207.06
2023-02-22T01:58:05.923Z,101202.78
2023-02-22T02:00:32.299Z,101194.16
2023-02-22T02:03:00.005Z,101187.56
2023-02-22T02:05:26.875Z,101189.03
2023-02-22T02:07:53.329Z,101186.16
2023-02-22T02:10:21.364Z,101182.56
2023-02-22T02:12:48.763Z,101185.44
2023-02-22T02:15:25.504Z,101194.78
2023-02-22T02:17:52.198Z,101195.56
2023-02-22T02:20:30.772Z,101195.63
2023-02-22T02:23:16.001Z,101188.53
2023-02-22T02:26:03.900Z,101190.78
2023-02-22T02:28:48.835Z,101185.75
2023-02-22T02:31:26.070Z,101188.75
2023-02-22T02:34:02.933Z,101193.00
2023-02-22T02:36:49.447Z,101183.00
2023-02-22T02:39:20.741Z,101188.75
2023-02-22T02:41:47.801Z,101185.88
2023-02-22T02:44:28.455Z,101183.00
2023-02-22T02:47:08.008Z,101180.13
2023-02-22T02:49:35.810Z,101183.63
2023-02-22T02:52:02.142Z,101181.50
2023-02-22T02:54:28.498Z,101179.28
2023-02-22T02:56:56.024Z,101178.50
2023-02-22T02:59:26.313Z,101190.00
2023-02-22T03:01:57.370Z,101188.53
2023-02-22T03:04:23.654Z,101181.25
2023-02-22T03:06:52.338Z,101175.53
2023-02-22T03:09:35.446Z,101184.91
2023-02-22T03:12:11.740Z,101186.28
2023-02-22T03:14:38.143Z,101179.06
2023-02-22T03:17:05.959Z,101178.31
2023-02-22T03:19:35.289Z,101179.69
2023-02-22T03:22:02.799Z,101176.81
2023-02-22T03:24:52.963Z,101166.81
2023-02-22T03:27:27.968Z,101168.81
2023-02-22T03:30:00.365Z,101168.06
2023-02-22T03:32:31.470Z,101163.81
2023-02-22T03:34:59.284Z,101168.06
2023-02-22T03:37:29.114Z,101168.06
2023-02-22T03:39:55.477Z,101169.56
2023-02-22T03:42:23.597Z,101166.81
2023-02-22T03:44:50.004Z,101161.81
2023-02-22T03:47:17.520Z,101176.28
2023-02-22T03:49:50.048Z,101167.00
2023-02-22T03:52:17.269Z,101162.03
2023-02-22T03:54:43.740Z,101166.38
2023-02-22T03:57:17.957Z,101170.00
2023-02-22T03:59:44.818Z,101165.75
2023-02-22T04:02:11.679Z,101165.75
2023-02-22T04:04:38.290Z,101164.34
2023-02-22T04:07:05.872Z,101171.50
2023-02-22T04:09:32.763Z,101173.72
2023-02-22T04:11:59.123Z,101168.63
2023-02-22T04:14:28.167Z,101169.47
2023-02-22T04:16:56.742Z,101173.09
2023-02-22T04:19:23.124Z,101170.94
2023-02-22T04:21:51.029Z,101161.69
2023-02-22T04:24:21.860Z,101160.28
2023-02-22T04:26:48.396Z,101164.69
2023-02-22T04:29:15.355Z,101161.06
2023-02-22T04:31:44.228Z,101170.44
2023-02-22T04:34:11.129Z,101162.44
2023-02-22T04:36:42.209Z,101156.69
2023-02-22T04:39:08.825Z,101156.69
2023-02-22T04:41:35.274Z,101166.91
2023-02-22T04:44:01.671Z,101157.63
2023-02-22T04:46:28.595Z,101158.38
2023-02-22T04:48:55.461Z,101158.38
2023-02-22T04:51:24.727Z,101158.28
2023-02-22T04:53:56.529Z,101154.66
2023-02-22T04:56:24.071Z,101153.47
2023-02-22T04:58:50.423Z,101158.59
2023-02-22T05:01:17.064Z,101160.84
2023-02-22T05:03:46.005Z,101152.22
2023-02-22T05:06:12.661Z,101156.56
2023-02-22T05:08:38.996Z,101149.44
2023-02-22T05:11:05.431Z,101153.78
2023-02-22T05:13:31.824Z,101153.06
2023-02-22T05:15:58.208Z,101147.31
2023-02-22T05:18:24.789Z,101150.91
2023-02-22T05:20:51.144Z,101143.03
2023-02-22T05:23:17.529Z,101154.00
2023-02-22T05:25:44.437Z,101151.13
2023-02-22T05:28:11.470Z,101145.28
2023-02-22T05:30:39.752Z,101151.47
2023-02-22T05:33:09.387Z,101143.56
2023-02-22T05:35:37.030Z,101143.34
2023-02-22T05:38:03.739Z,101142.25
2023-02-22T05:40:30.081Z,101151.81
2023-02-22T05:42:56.923Z,101151.44
2023-02-22T05:45:24.851Z,101149.59
2023-02-22T05:47:51.257Z,101153.13
2023-02-22T05:50:17.620Z,101151.72
2023-02-22T05:52:44.093Z,101154.84
2023-02-22T05:55:10.454Z,101147.06
2023-02-22T05:57:36.770Z,101154.94
2023-02-22T06:00:04.370Z,101150.66
2023-02-22T06:02:39.222Z,101147.78
2023-02-22T06:05:05.627Z,101158.56
2023-02-22T06:07:31.975Z,101157.81
2023-02-22T06:09:58.344Z,101163.56
2023-02-22T06:12:24.666Z,101160.69
2023-02-22T06:14:51.044Z,101162.84
2023-02-22T06:17:18.870Z,101168.59
2023-02-22T06:19:46.064Z,101167.84
2023-02-22T06:22:16.149Z,101167.84
2023-02-22T06:24:42.518Z,101169.97
2023-02-22T06:27:08.839Z,101174.97
2023-02-22T06:29:35.396Z,101177.75
2023-02-22T06:32:01.883Z,101174.88
2023-02-22T06:34:28.307Z,101179.16
2023-02-22T06:36:54.620Z,101176.91
2023-02-22T06:39:20.952Z,101176.91
2023-02-22T06:41:47.336Z,101188.41
2023-02-22T06:44:14.027Z,101183.38
2023-02-22T06:46:40.484Z,101189.03
2023-02-22T06:49:06.808Z,101187.66
2023-02-22T06:51:36.324Z,101194.91
2023-02-22T06:54:02.635Z,101194.16
2023-02-22T06:56:29.034Z,101199.91
2023-02-22T06:58:55.343Z,101200.66
2023-02-22T07:01:21.777Z,101200.66
2023-02-22T07:03:48.894Z,101206.41
2023-02-22T07:06:15.249Z,101210.66
2023-02-22T07:08:41.564Z,101210.66
2023-02-22T07:11:07.884Z,101203.41
2023-02-22T07:13:34.243Z,101196.19
2023-02-22T07:16:00.662Z,101204.81
2023-02-22T07:18:27.017Z,101200.47
2023-02-22T07:20:54.321Z,101201.81
2023-02-22T07:23:20.669Z,101200.47
2023-02-22T07:25:47.005Z,101198.94
2023-02-22T07:28:13.344Z,101202.56
2023-02-22T07:30:39.720Z,101207.69
2023-02-22T07:33:07.112Z,101200.47
2023-02-22T07:35:36.566Z,101200.47
2023-02-22T07:38:03.368Z,101207.69
2023-02-22T07:40:29.714Z,101209.81
2023-02-22T07:42:59.569Z,101205.44
2023-02-22T07:45:29.373Z,101213.44
2023-02-22T07:47:55.750Z,101206.94
2023-02-22T07:50:22.373Z,101203.97
2023-02-22T07:52:49.067Z,101210.47
2023-02-22T07:55:16.835Z,101216.22
2023-02-22T07:57:43.948Z,101211.84
2023-02-22T08:00:10.579Z,101204.72
2023-02-22T08:02:38.902Z,101207.59
2023-02-22T08:05:05.874Z,101216.22
2023-02-22T08:07:32.479Z,101207.69
2023-02-22T08:09:58.800Z,101207.69
2023-02-22T08:12:25.165Z,101201.94
2023-02-22T08:14:51.494Z,101209.16
2023-02-22T08:17:17.840Z,101207.69
2023-02-22T08:19:44.313Z,101207.69
2023-02-22T08:22:10.668Z,101207.69
2023-02-22T08:24:36.976Z,101206.22
2023-02-22T08:27:03.305Z,101208.97
2023-02-22T08:29:33.448Z,101215.16
2023-02-22T08:32:00.371Z,101211.53
2023-02-22T08:34:26.956Z,101218.75
2023-02-22T08:36:53.353Z,101215.88
2023-02-22T08:39:19.839Z,101217.28
2023-02-22T08:41:46.221Z,101214.50
2023-02-22T08:44:12.549Z,101216.00
2023-02-22T08:46:39.218Z,101212.38
2023-02-22T08:49:07.184Z,101205.25
2023-02-22T08:51:36.405Z,101208.88
2023-02-22T08:54:03.442Z,101206.00
2023-02-22T08:56:30.252Z,101211.75
2023-02-22T08:58:57.437Z,101212.50
2023-02-22T09:01:32.779Z,101208.53
2023-02-22T09:03:59.614Z,101211.41
2023-02-22T09:06:25.959Z,101209.28
2023-02-22T09:08:52.326Z,101197.66
2023-02-22T09:11:18.802Z,101210.66
2023-02-22T09:13:45.211Z,101203.41
2023-02-22T09:16:11.570Z,101196.63
2023-02-22T09:18:44.022Z,101203.34
2023-02-22T09:21:11.755Z,101203.53
2023-02-22T09:23:38.080Z,101196.41
2023-02-22T09:26:04.435Z,101190.66
2023-02-22T09:28:30.750Z,101192.88
2023-02-22T09:30:57.084Z,101194.38
2023-02-22T09:33:23.619Z,101195.84
2023-02-22T09:35:50.186Z,101197.97
2023-02-22T09:38:17.476Z,101200.88
2023-02-22T09:40:45.876Z,101192.88
2023-02-22T09:43:18.211Z,101194.38
2023-02-22T09:46:02.708Z,101197.13
2023-02-22T09:48:31.775Z,101189.25
2023-02-22T09:50:58.544Z,101189.91
2023-02-22T09:53:31.513Z,101191.38
2023-02-22T09:55:59.453Z,101193.63
2023-02-22T09:58:34.349Z,101182.13
2023-02-22T10:01:18.853Z,101187.88
2023-02-22T10:03:49.573Z,101177.09
2023-02-22T10:06:17.401Z,101179.34
2023-02-22T10:08:44.950Z,101176.56
2023-02-22T10:11:15.991Z,101178.69
2023-02-22T10:13:51.142Z,101177.31
2023-02-22T10:16:21.006Z,101176.56
2023-02-22T10:19:08.158Z,101172.94
2023-02-22T10:21:47.393Z,101173.59
2023-02-22T10:24:24.809Z,101172.94
2023-02-22T10:26:51.174Z,101175.06
2023-02-22T10:29:19.176Z,101172.84
2023-02-22T10:31:46.332Z,101173.28
2023-02-22T10:34:14.068Z,101165.28
2023-02-22T10:36:42.362Z,101162.41
2023-02-22T10:39:14.942Z,101168.16
2023-02-22T10:41:43.341Z,101173.59
2023-02-22T10:44:10.835Z,101158.56
2023-02-22T10:46:37.164Z,101162.28
2023-02-22T10:49:04.871Z,101162.28
2023-02-22T10:51:34.633Z,101159.41
2023-02-22T10:54:12.832Z,101160.91
2023-02-22T10:56:48.961Z,101156.34
2023-02-22T10:59:26.983Z,101150.66
2023-02-22T11:01:53.495Z,101151.97
2023-02-22T11:04:21.598Z,101158.34
2023-02-22T11:06:49.057Z,101159.00
2023-02-22T11:09:17.839Z,101154.63
2023-02-22T11:11:45.917Z,101153.16
2023-02-22T11:14:13.239Z,101154.63
2023-02-22T11:16:41.801Z,101154.63
2023-02-22T11:19:11.336Z,101153.78
2023-02-22T11:21:41.030Z,101147.41
2023-02-22T11:24:10.963Z,101145.16
2023-02-22T11:26:49.167Z,101138.66
2023-02-22T11:29:21.782Z,101143.69
2023-02-22T11:31:49.250Z,101134.31
2023-02-22T11:34:44.687Z,101136.41
2023-02-22T11:37:29.718Z,101133.44
2023-02-22T11:40:06.311Z,101139.97
2023-02-22T11:42:32.649Z,101132.69
2023-02-22T11:45:27.306Z,101129.09
2023-02-22T11:47:57.005Z,101124.06
2023-02-22T11:50:30.679Z,101119.81
2023-02-22T11:53:17.201Z,101117.56
2023-02-22T11:55:50.644Z,101119.72
2023-02-22T11:58:24.275Z,101112.47
2023-02-22T12:00:58.396Z,101107.47
2023-02-22T12:03:51.285Z,101109.47
2023-02-22T12:06:32.806Z,101110.78
2023-02-22T12:09:02.115Z,101102.16
2023-02-22T12:11:36.867Z,101097.78
2023-02-22T12:14:10.227Z,101096.28
2023-02-22T12:16:42.585Z,101099.81
2023-02-22T12:19:27.728Z,101094.06
2023-02-22T12:21:54.950Z,101091.84
2023-02-22T12:24:22.525Z,101091.19
2023-02-22T12:27:01.152Z,101088.25
2023-02-22T12:29:32.953Z,101089.72
2023-02-22T12:32:04.813Z,101092.28
2023-02-22T12:34:38.466Z,101091.53
2023-02-22T12:37:17.080Z,101087.81
2023-02-22T12:39:53.251Z,101089.09
2023-02-22T12:42:21.315Z,101088.25
2023-02-22T12:44:51.011Z,101099.75
2023-02-22T12:47:18.946Z,101097.69
2023-02-22T12:49:49.300Z,101092.63
2023-02-22T12:52:34.492Z,101104.59
2023-02-22T12:55:01.961Z,101101.75
2023-02-22T12:57:36.032Z,101102.09
2023-02-22T13:00:04.368Z,101099.53
2023-02-22T13:02:32.369Z,101098.84
2023-02-22T13:04:58.752Z,101098.50
2023-02-22T13:07:32.365Z,101087.94
2023-02-22T13:10:18.757Z,101092.84
2023-02-22T13:12:49.382Z,101091.28
2023-02-22T13:15:22.688Z,101088.41
2023-02-22T13:17:56.214Z,101091.97
2023-02-22T13:20:23.956Z,101084.63
2023-02-22T13:22:50.210Z,101078.09
2023-02-22T13:25:19.577Z,101079.28
2023-02-22T13:27:54.492Z,101077.97
2023-02-22T13:30:23.195Z,101072.13
2023-02-22T13:33:08.132Z,101073.41
2023-02-22T13:35:38.586Z,101066.47
2023-02-22T13:38:04.851Z,101066.16
2023-02-22T13:40:34.213Z,101064.56
2023-02-22T13:43:19.287Z,101058.63
2023-02-22T13:45:52.465Z,101064.84
2023-02-22T13:48:37.574Z,101066.53
2023-02-22T13:51:06.603Z,101065.34
2023-02-22T13:53:39.169Z,101064.72
2023-02-22T13:56:05.496Z,101064.09
2023-02-22T13:58:31.820Z,101070.69
2023-02-22T14:00:58.540Z,101059.28
2023-02-22T14:03:36.052Z,101063.66
2023-02-22T14:06:03.309Z,101061.63
2023-02-22T14:08:33.688Z,101063.13
2023-02-22T14:11:15.214Z,101058.84
2023-02-22T14:13:55.168Z,101063.22
2023-02-22T14:16:22.451Z,101058.13
2023-02-22T14:18:49.389Z,101058.22
2023-02-22T14:21:20.354Z,101051.19
2023-02-22T14:23:50.467Z,101055.44
2023-02-22T14:26:25.761Z,101050.34
2023-02-22T14:28:52.052Z,101049.59
2023-02-22T14:31:35.627Z,101040.41
2023-02-22T14:34:04.798Z,101043.28
2023-02-22T14:36:53.069Z,101037.53
2023-02-22T14:39:20.533Z,101037.66
2023-02-22T14:41:49.056Z,101038.84
2023-02-22T14:44:16.437Z,101034.59
2023-02-22T14:46:42.803Z,101034.66
2023-02-22T14:49:10.072Z,101032.56
2023-02-22T14:51:42.775Z,101036.19
2023-02-22T14:54:20.461Z,101031.78
2023-02-22T14:57:14.583Z,101035.53
2023-02-22T14:59:52.402Z,101023.28
2023-02-22T15:02:18.781Z,101026.38
2023-02-22T15:04:54.703Z,101021.34
2023-02-22T15:07:21.032Z,101025.00
2023-02-22T15:09:48.344Z,101010.53
2023-02-22T15:12:20.999Z,101018.81
2023-02-22T15:14:48.424Z,101017.88
2023-02-22T15:17:19.103Z,101013.72
2023-02-22T15:19:45.473Z,101017.53
2023-02-22T15:22:18.343Z,101020.50
2023-02-22T15:24:44.690Z,101006.97
2023-02-22T15:27:14.060Z,101002.63
2023-02-22T15:29:44.195Z,101013.50
2023-02-22T15:32:18.086Z,101003.47
2023-02-22T15:34:44.522Z,101006.25
2023-02-22T15:37:25.025Z,101013.50
2023-02-22T15:39:59.110Z,101001.34
2023-02-22T15:42:25.723Z,101008.59
2023-02-22T15:44:53.704Z,101003.56
2023-02-22T15:47:27.494Z,101002.94
2023-02-22T15:50:15.220Z,100997.94
2023-02-22T15:53:01.820Z,101003.69
2023-02-22T15:55:29.047Z,100997.28
2023-02-22T15:57:55.969Z,100993.66
2023-02-22T16:00:33.314Z,100993.75
2023-02-22T16:02:59.657Z,100987.91
2023-02-22T16:05:30.743Z,100989.41
2023-02-22T16:07:57.078Z,100987.91
2023-02-22T16:10:30.529Z,100993.66
2023-02-22T16:13:03.751Z,100987.91
2023-02-22T16:15:32.916Z,100983.66
2023-02-22T16:18:16.272Z,100981.41
2023-02-22T16:20:42.612Z,100986.44
2023-02-22T16:23:25.121Z,100993.66
2023-02-22T16:26:03.478Z,100990.06
2023-02-22T16:29:06.119Z,100983.56
2023-02-22T16:31:36.762Z,100987.16
2023-02-22T16:34:04.010Z,100991.53
2023-02-22T16:36:43.410Z,101003.78
2023-02-22T16:39:14.365Z,100997.38
2023-02-22T16:41:40.690Z,100995.16
2023-02-22T16:44:07.823Z,100998.03
2023-02-22T16:46:35.049Z,100993.13
2023-02-22T16:49:03.334Z,100991.00
2023-02-22T16:51:29.738Z,101000.34
2023-02-22T16:53:56.079Z,100995.34
2023-02-22T16:56:23.937Z,100996.75
2023-02-22T16:58:50.594Z,100999.63
2023-02-22T17:01:17.565Z,100998.13
2023-02-22T17:03:44.513Z,100998.13
2023-02-22T17:06:10.861Z,100998.13
2023-02-22T17:08:37.989Z,100992.66
2023-02-22T17:11:04.400Z,100988.44
2023-02-22T17:13:30.734Z,100989.78
2023-02-22T17:15:57.163Z,100997.06
2023-02-22T17:18:24.049Z,100997.16
2023-02-22T17:20:50.886Z,100993.28
2023-02-22T17:23:17.385Z,100994.03
2023-02-22T17:25:53.613Z,100998.00
2023-02-22T17:28:20.102Z,101002.81
2023-02-22T17:30:48.832Z,100994.06
2023-02-22T17:33:15.955Z,100994.06
2023-02-22T17:35:42.310Z,100989.78
2023-02-22T17:38:09.513Z,100994.06
2023-02-22T17:40:36.596Z,100993.34
2023-02-22T17:43:03.052Z,100982.56
2023-02-22T17:45:29.405Z,100993.34
2023-02-22T17:47:55.739Z,100988.44
2023-02-22T17:50:22.369Z,100984.03
2023-02-22T17:52:51.558Z,100980.53
2023-02-22T17:55:18.744Z,100988.53
2023-02-22T17:57:46.495Z,100988.53
2023-02-22T18:00:23.115Z,100986.28
2023-02-22T18:02:50.102Z,100984.16
2023-02-22T18:05:17.369Z,100989.78
2023-02-22T18:07:44.141Z,100984.81
2023-02-22T18:10:13.083Z,100994.06
2023-02-22T18:12:39.428Z,100976.81
2023-02-22T18:15:06.139Z,100981.06
2023-02-22T18:17:32.470Z,100981.06
2023-02-22T18:19:58.811Z,100986.09
2023-02-22T18:22:25.127Z,100983.09
2023-02-22T18:24:57.679Z,100988.13
2023-02-22T18:27:25.961Z,100991.63
2023-02-22T18:29:52.307Z,100975.13
2023-02-22T18:32:18.683Z,100988.00
2023-02-22T18:34:45.592Z,100983.78
2023-02-22T18:37:11.948Z,100978.00
2023-02-22T18:39:42.751Z,100985.25
2023-02-22T18:42:11.305Z,100975.22
2023-02-22T18:44:37.719Z,100973.84
2023-02-22T18:47:04.050Z,100975.31
2023-02-22T18:49:30.381Z,100971.06
2023-02-22T18:51:56.713Z,100965.31
2023-02-22T18:54:23.054Z,100971.81
2023-02-22T18:56:49.383Z,100966.78
2023-02-22T18:59:15.985Z,100972.53
2023-02-22T19:01:48.596Z,100971.06
2023-02-22T19:04:15.036Z,100968.19
2023-02-22T19:06:42.968Z,100968.19
2023-02-22T19:09:09.319Z,100969.56
2023-02-22T19:11:35.817Z,100965.94
2023-02-22T19:14:04.000Z,100961.72
2023-02-22T19:16:30.387Z,100958.06
2023-02-22T19:18:57.260Z,100973.22
2023-02-22T19:21:24.251Z,100969.56
2023-02-22T19:23:50.648Z,100973.94
2023-02-22T19:26:21.128Z,100964.16
2023-02-22T19:28:47.763Z,100974.31
2023-02-22T19:31:14.686Z,100963.06
2023-02-22T19:33:41.149Z,100967.16
2023-02-22T19:36:07.993Z,100966.41
2023-02-22T19:38:34.392Z,100963.00
2023-02-22T19:41:00.711Z,100964.88
2023-02-22T19:43:27.087Z,100967.22
2023-02-22T19:45:53.509Z,100960.09
2023-02-22T19:48:20.678Z,100959.34
2023-02-22T19:50:49.332Z,100965.94
2023-02-22T19:53:15.973Z,100962.81
2023-02-22T19:55:42.305Z,100960.03
2023-02-22T19:58:08.990Z,100966.75
2023-02-22T20:00:35.731Z,100964.53
2023-02-22T20:03:10.488Z,100965.25
2023-02-22T20:05:40.177Z,100960.88
2023-02-22T20:08:06.501Z,100957.47
2023-02-22T20:10:34.454Z,100969.19
2023-02-22T20:13:01.200Z,100956.19
2023-02-22T20:15:28.035Z,100964.72
2023-02-22T20:17:55.100Z,100967.69
2023-02-22T20:20:24.085Z,100963.44
2023-02-22T20:22:50.614Z,100967.78
2023-02-22T20:25:16.979Z,100964.19
2023-02-22T20:27:43.308Z,100961.56
2023-02-22T20:30:10.417Z,100963.53
2023-02-22T20:32:37.785Z,100965.22
2023-02-22T20:35:04.606Z,100969.56
2023-02-22T20:37:31.302Z,100970.97
2023-02-22T20:39:59.780Z,100964.38
2023-02-22T20:42:26.388Z,100960.84
2023-02-22T20:44:52.789Z,100956.50
2023-02-22T20:47:19.151Z,100947.88
2023-02-22T20:49:45.509Z,100952.88
2023-02-22T20:52:11.828Z,100947.88
2023-02-22T20:54:38.173Z,100950.75
2023-02-22T20:57:07.866Z,100945.09
2023-02-22T20:59:34.247Z,100945.09
2023-02-22T21:02:00.584Z,100953.81
2023-02-22T21:04:32.820Z,100953.81
2023-02-22T21:07:01.134Z,100950.94
2023-02-22T21:09:27.560Z,100954.56
2023-02-22T21:11:53.913Z,100950.94
2023-02-22T21:14:20.316Z,100948.06
2023-02-22T21:16:47.329Z,100949.44
2023-02-22T21:19:27.774Z,100950.22
2023-02-22T21:21:54.900Z,100952.31
2023-02-22T21:24:22.250Z,100952.41
2023-02-22T21:26:48.575Z,100949.34
2023-02-22T21:29:14.914Z,100939.34
2023-02-22T21:31:41.427Z,100945.28
2023-02-22T21:34:09.406Z,100939.53
2023-02-22T21:36:35.736Z,100943.25
2023-02-22T21:39:08.283Z,100938.34
2023-02-22T21:41:34.614Z,100941.22
2023-02-22T21:44:01.029Z,100934.72
2023-02-22T21:46:27.672Z,100928.97
2023-02-22T21:48:54.073Z,100934.00
2023-02-22T21:51:25.307Z,100928.16
2023-02-22T21:53:52.318Z,100921.63
2023-02-22T21:56:19.410Z,100921.00
2023-02-22T21:58:46.114Z,100919.50
2023-02-22T22:01:17.055Z,100925.28
2023-02-22T22:03:44.543Z,100916.53
2023-02-22T22:06:10.891Z,100914.41
2023-02-22T22:08:40.692Z,100916.53
2023-02-22T22:11:09.187Z,100920.78
2023-02-22T22:13:36.432Z,100917.81
2023-02-22T22:16:03.639Z,100912.06
2023-02-22T22:18:29.986Z,100909.84
2023-02-22T22:20:56.717Z,100914.94
2023-02-22T22:23:23.057Z,100906.22
2023-02-22T22:25:51.224Z,100904.75
2023-02-22T22:28:17.566Z,100914.84
2023-02-22T22:30:43.959Z,100913.38
2023-02-22T22:33:11.262Z,100907.63
2023-02-22T22:35:41.818Z,100905.38
2023-02-22T22:38:09.410Z,100900.41
2023-02-22T22:40:35.881Z,100900.41
2023-02-22T22:43:02.247Z,100905.94
2023-02-22T22:45:28.611Z,100902.41
2023-02-22T22:47:55.348Z,100905.94
2023-02-22T22:50:26.346Z,100904.44
2023-02-22T22:52:53.341Z,100894.44
2023-02-22T22:55:19.695Z,100885.72
2023-02-22T22:57:46.056Z,100893.59
2023-02-22T23:00:26.720Z,100889.97
2023-02-22T23:02:56.111Z,100889.97
2023-02-22T23:05:25.694Z,100884.16
2023-02-22T23:07:52.300Z,100881.91
2023-02-22T23:10:19.056Z,100875.41
2023-02-22T23:12:45.435Z,100878.28
2023-02-22T23:15:13.752Z,100882.53
2023-02-22T23:17:42.812Z,100874.59
2023-02-22T23:20:11.658Z,100873.81
2023-02-22T23:22:38.497Z,100880.22
2023-02-22T23:25:05.489Z,100883.84
2023-02-22T23:27:31.895Z,100888.09
2023-02-22T23:29:59.237Z,100877.34
2023-02-22T23:32:26.950Z,100881.59
2023-02-22T23:34:53.377Z,100875.13
2023-02-22T23:37:20.731Z,100876.53
2023-02-22T23:39:47.581Z,100876.59
2023-02-22T23:42:16.742Z,100872.34
2023-02-22T23:44:43.391Z,100876.69
2023-02-22T23:47:09.720Z,100874.59
2023-02-22T23:49:37.927Z,100876.78
2023-02-22T23:52:04.814Z,100879.03
2023-02-22T23:54:40.178Z,100878.41
2023-02-22T23:57:08.675Z,100879.78
2023-02-22T23:59:35.145Z,100879.78
